Nakhon Phanom Airport
VTUW : now visible

Airfield :











YOU CAN JOIN US ON...

 
LOGIN :

Register | Disclaimer

   EN    FR    IT 

 









Legend :    VFR   Marginal VFR   IFR   Intensive IFR   Very Intensive IFR
Visi :
Ceiling :
>= 8 km
>= 3000ft
5 to 8 km
1000 to 3000 ft
1500m to 5 km
500 to 1000 ft
800 to 1500m
200 to 500 ft
< 800m
< 200 ft
Symbols :   Thunderstorms  Fog  Heavy snow  Heavy precipitations  Wind > 20 kt






- Airport Elevation : 587 ft
- IATA code : KOP


VTUW - Nakhon Phanom

CURRENT METAR :
  • 010600Z 17007KT 120V220 9999 FEW030 36/23 Q1008 NOSIG

EXPIRED METARs :
  • 010500Z 15008KT 120V190 CAVOK 35/23 Q1010 NOSIG
  • 010400Z 15009KT 120V190 CAVOK 33/23 Q1011 NOSIG

TAF TAF VTUW
Valid from the 01 at 06:00 until the 02 at 06:00 UTC


010500Z 0106/0206 14008KT 9999 FEW040
TEMPO 0202/0206 VRB15KT 3000 TSRA FEW018CB SCT030



MET'MAP, your aeronautical weather chart ! - Copyright ORBIFLY December 2007 - Disclaimer

ORBIFLY MET'MAP TEAM :

Programming & Development : Alexandra Zaïnal
Concept & original design : Baudouin d'Aumeries
Assistance for programming : Marc-Olivier Méhu
Technical & hardware support : Manuel Goepfert

Contact : metmap@orbifly.com




SOURCES & CREDITS :

   NOAA       Earth
Advisory